Time;durP1;ratioP1;P1;durP2;ratioP2;P2;SDS_P1;SDS_P2;PMS_P1;PMS_P2;Temp;Humidity;BMP_temperature;BMP_pressure;BME280_temperature;BME280_humidity;BME280_pressure;Samples;Min_cycle;Max_cycle;Signal;HPM_P1;HPM_P2
2023/01/09 00:00:58;;;;;;;4.57;1.67;;;26.70;93.40;;;;;;5072457;28;20367;-84
2023/01/09 00:03:25;;;;;;;8.30;2.10;;;26.80;93.70;;;;;;5074529;28;20401;-82
2023/01/09 00:05:53;;;;;;;5.03;1.90;;;26.80;93.20;;;;;;5077571;28;20386;-85
2023/01/09 00:08:19;;;;;;;6.15;1.90;;;26.80;93.90;;;;;;5073749;28;20389;-81
2023/01/09 00:10:49;;;;;;;7.22;1.88;;;27.30;93.40;;;;;;5071676;28;20374;-78
2023/01/09 00:13:16;;;;;;;6.80;1.98;;;27.60;92.30;;;;;;5071386;28;20806;-83
2023/01/09 00:15:43;;;;;;;5.72;1.80;;;27.50;91.80;;;;;;5072079;28;20374;-83
2023/01/09 00:18:11;;;;;;;8.10;1.88;;;27.60;92.10;;;;;;5071375;28;20397;-83
2023/01/09 00:20:37;;;;;;;6.07;1.70;;;28.10;91.10;;;;;;5070657;28;20418;-84
2023/01/09 00:23:04;;;;;;;4.90;1.80;;;28.20;89.00;;;;;;5070955;28;20833;-84
2023/01/09 00:25:32;;;;;;;4.07;1.77;;;27.80;90.20;;;;;;5071130;28;20461;-83
2023/01/09 00:27:59;;;;;;;5.68;1.70;;;27.60;90.10;;;;;;5072638;28;20390;-89
2023/01/09 00:30:26;;;;;;;5.20;1.60;;;27.70;87.80;;;;;;5076844;28;20395;-84
2023/01/09 00:32:54;;;;;;;5.78;1.90;;;27.60;87.90;;;;;;5080036;28;20408;-83
2023/01/09 00:35:24;;;;;;;4.60;1.50;;;27.60;86.40;;;;;;5081893;28;20877;-81
2023/01/09 00:37:51;;;;;;;6.13;1.70;;;27.40;83.00;;;;;;5080188;28;20469;-86
2023/01/09 00:40:18;;;;;;;7.97;1.80;;;27.50;83.80;;;;;;5074914;28;20420;-87
2023/01/09 00:42:50;;;;;;;4.97;1.70;;;27.40;83.70;;;;;;5080992;28;20862;-86
2023/01/09 00:45:27;;;;;;;4.72;1.65;;;27.40;83.80;;;;;;5086734;28;20386;-84
2023/01/09 00:48:01;;;;;;;4.90;1.70;;;27.50;81.70;;;;;;5081942;28;20929;-82
2023/01/09 00:50:31;;;;;;;4.63;1.50;;;27.30;81.20;;;;;;5078376;28;20478;-84
2023/01/09 00:53:06;;;;;;;5.70;1.55;;;27.00;82.30;;;;;;5063011;28;20440;-87
2023/01/09 00:55:35;;;;;;;3.90;1.40;;;27.10;82.50;;;;;;5067592;28;20385;-81
2023/01/09 00:58:02;;;;;;;5.43;1.60;;;27.40;82.80;;;;;;5074667;28;20392;-86
2023/01/09 01:00:29;;;;;;;4.28;1.10;;;27.70;80.20;;;;;;5060346;28;20451;-89
2023/01/09 01:02:56;;;;;;;3.97;1.50;;;28.30;79.50;;;;;;5072836;28;20386;-84
2023/01/09 01:08:14;;;;;;;3.90;1.30;;;29.50;74.20;;;;;;5074987;28;20446;-84
2023/01/09 01:10:41;;;;;;;2.75;1.30;;;30.20;70.50;;;;;;5071563;28;20461;-88
2023/01/09 01:13:09;;;;;;;5.47;1.42;;;30.50;69.40;;;;;;5069958;28;20402;-85
2023/01/09 01:15:39;;;;;;;3.78;1.50;;;30.60;68.40;;;;;;5081814;28;20380;-86
2023/01/09 01:18:06;;;;;;;4.82;1.52;;;30.50;68.70;;;;;;5074866;28;20812;-85
2023/01/09 01:20:34;;;;;;;4.97;1.40;;;30.50;68.50;;;;;;5076777;28;20854;-85
2023/01/09 01:23:00;;;;;;;3.63;1.50;;;30.50;68.60;;;;;;5073129;28;20435;-84
2023/01/09 01:25:27;;;;;;;7.13;1.50;;;30.30;67.60;;;;;;5071569;28;20390;-85
2023/01/09 01:27:54;;;;;;;3.97;1.40;;;29.90;68.30;;;;;;5077320;28;20390;-91
2023/01/09 01:30:21;;;;;;;4.80;1.70;;;29.70;69.80;;;;;;5082991;28;20403;-86
2023/01/09 01:32:51;;;;;;;4.55;1.60;;;29.90;70.70;;;;;;5085247;28;21283;-83
2023/01/09 01:35:18;;;;;;;5.10;1.50;;;30.30;72.10;;;;;;5088877;28;20456;-85
2023/01/09 01:37:47;;;;;;;4.70;1.60;;;30.50;69.40;;;;;;5089812;28;20372;-83
2023/01/09 01:40:15;;;;;;;5.25;1.45;;;30.80;69.60;;;;;;5083315;28;20382;-85
2023/01/09 01:42:49;;;;;;;3.97;1.58;;;31.00;68.30;;;;;;5088679;28;20827;-86
2023/01/09 01:45:19;;;;;;;3.13;1.20;;;31.20;66.30;;;;;;5085457;28;20755;-83
2023/01/09 01:47:59;;;;;;;3.47;1.40;;;31.60;65.60;;;;;;5082445;28;20374;-86
2023/01/09 01:50:29;;;;;;;2.72;1.27;;;31.90;62.40;;;;;;5087778;28;20379;-83
2023/01/09 01:53:00;;;;;;;5.00;1.50;;;32.00;62.30;;;;;;5076551;28;20414;-83
2023/01/09 01:55:27;;;;;;;4.22;1.30;;;32.20;61.60;;;;;;5056616;28;20382;-82
2023/01/09 01:57:58;;;;;;;5.13;1.30;;;32.40;61.80;;;;;;5083320;28;20411;-84
2023/01/09 02:00:31;;;;;;;4.65;1.23;;;33.00;59.20;;;;;;5069864;28;20865;-87
2023/01/09 02:03:00;;;;;;;3.72;1.30;;;33.30;57.90;;;;;;5071931;28;20849;-85
2023/01/09 02:05:27;;;;;;;6.97;1.30;;;33.40;58.50;;;;;;5074183;28;20374;-85
2023/01/09 02:07:54;;;;;;;4.87;1.30;;;33.90;56.20;;;;;;5075037;28;20409;-86
2023/01/09 02:10:22;;;;;;;6.78;1.65;;;34.10;56.50;;;;;;5070821;28;20440;-87
2023/01/09 02:12:49;;;;;;;3.80;1.45;;;34.40;54.60;;;;;;5072341;28;20406;-87
2023/01/09 02:15:18;;;;;;;3.27;1.40;;;34.20;55.00;;;;;;5080269;28;20378;-86
2023/01/09 02:18:09;;;;;;;5.20;1.42;;;34.40;54.10;;;;;;5069820;28;20385;-88
2023/01/09 02:20:36;;;;;;;3.97;1.50;;;34.80;53.50;;;;;;5069598;28;20374;-87
2023/01/09 02:23:27;;;;;;;5.20;1.70;;;35.20;52.70;;;;;;5056640;28;20362;-86
2023/01/09 02:26:10;;;;;;;5.45;1.50;;;35.20;53.50;;;;;;5085984;28;20373;-85
2023/01/09 02:29:03;;;;;;;4.85;1.60;;;35.70;53.40;;;;;;5074403;28;20374;-92
2023/01/09 02:31:41;;;;;;;8.00;1.70;;;35.10;52.00;;;;;;5059306;28;20402;-86
2023/01/09 02:34:29;;;;;;;5.35;1.50;;;35.00;52.60;;;;;;5069082;28;20398;-88
2023/01/09 02:37:20;;;;;;;4.75;1.63;;;35.50;52.20;;;;;;5068420;28;20452;-90
2023/01/09 02:40:19;;;;;;;4.20;1.60;;;36.00;51.10;;;;;;5073660;28;20422;-87
2023/01/09 02:42:47;;;;;;;9.05;1.55;;;36.20;50.00;;;;;;5057647;28;20388;-85
2023/01/09 02:45:14;;;;;;;3.60;1.40;;;36.40;49.50;;;;;;5063262;28;20378;-84
2023/01/09 02:47:46;;;;;;;5.53;1.60;;;36.60;49.80;;;;;;5072969;28;20405;-87
2023/01/09 02:50:18;;;;;;;2.95;1.30;;;37.00;49.60;;;;;;5073437;28;20385;-84
2023/01/09 02:52:57;;;;;;;4.00;1.35;;;37.10;49.60;;;;;;5072735;28;20890;-87
2023/01/09 02:55:45;;;;;;;4.80;1.50;;;37.30;49.20;;;;;;5077949;28;20421;-89
2023/01/09 02:58:32;;;;;;;3.70;1.40;;;37.80;49.50;;;;;;5072652;28;20378;-88
2023/01/09 03:01:21;;;;;;;5.73;1.60;;;37.70;48.50;;;;;;5072436;28;20378;-84
2023/01/09 03:04:06;;;;;;;3.90;1.60;;;37.50;48.70;;;;;;5066630;28;20439;-83
2023/01/09 03:07:09;;;;;;;5.07;1.48;;;37.90;47.60;;;;;;5074644;28;20454;-81
2023/01/09 03:09:40;;;;;;;3.77;1.30;;;37.60;48.30;;;;;;5077319;28;20501;-87
2023/01/09 03:12:17;;;;;;;4.60;1.40;;;37.90;47.70;;;;;;5070586;28;20920;-86
2023/01/09 03:14:50;;;;;;;3.08;1.50;;;37.80;47.90;;;;;;5072885;28;20435;-85
2023/01/09 03:17:28;;;;;;;4.17;1.57;;;38.30;47.40;;;;;;5073087;28;20858;-84
2023/01/09 03:19:57;;;;;;;3.47;1.50;;;38.40;46.80;;;;;;5072463;28;20457;-84
2023/01/09 03:22:24;;;;;;;3.97;1.52;;;38.50;47.00;;;;;;5072876;28;20374;-85
2023/01/09 03:24:51;;;;;;;4.45;1.50;;;38.80;48.10;;;;;;5076557;28;20787;-83
2023/01/09 03:27:18;;;;;;;3.30;1.30;;;38.20;45.50;;;;;;5076701;28;20385;-84
2023/01/09 03:29:45;;;;;;;4.85;1.60;;;38.30;46.40;;;;;;5072588;28;20374;-83
2023/01/09 03:32:12;;;;;;;4.13;1.60;;;38.10;48.00;;;;;;5070572;28;20500;-84
2023/01/09 03:34:39;;;;;;;6.80;1.67;;;38.00;47.70;;;;;;5073037;28;20921;-85
2023/01/09 03:37:06;;;;;;;5.22;1.55;;;38.20;47.90;;;;;;5073162;28;20719;-85
2023/01/09 03:39:33;;;;;;;5.33;1.70;;;38.40;47.70;;;;;;5072513;28;20413;-83
2023/01/09 03:42:00;;;;;;;5.20;1.42;;;38.90;47.80;;;;;;5072494;28;20409;-86
2023/01/09 03:44:27;;;;;;;4.40;1.60;;;38.80;48.30;;;;;;5082493;28;20373;-84
2023/01/09 03:46:54;;;;;;;5.15;1.60;;;38.90;47.50;;;;;;5074696;28;20459;-80
2023/01/09 03:49:21;;;;;;;5.50;1.77;;;38.80;48.40;;;;;;5071929;28;20402;-84
2023/01/09 03:51:48;;;;;;;4.80;1.67;;;38.70;48.60;;;;;;5072130;28;20402;-84
2023/01/09 03:54:15;;;;;;;4.07;1.50;;;38.50;48.00;;;;;;5081990;28;20364;-84
2023/01/09 03:56:42;;;;;;;4.32;1.60;;;38.30;48.70;;;;;;5078332;28;20385;-84
2023/01/09 03:59:09;;;;;;;7.10;1.63;;;38.10;49.50;;;;;;5091856;28;20408;-84
2023/01/09 04:01:36;;;;;;;5.27;1.40;;;37.60;49.50;;;;;;5074221;28;20393;-84
2023/01/09 04:04:03;;;;;;;3.17;1.40;;;37.70;49.70;;;;;;5072455;28;20484;-87
2023/01/09 04:06:30;;;;;;;3.17;1.60;;;37.90;50.30;;;;;;5078651;28;20390;-83
2023/01/09 04:08:57;;;;;;;5.75;1.60;;;38.20;49.80;;;;;;5074777;28;20900;-83
2023/01/09 04:11:24;;;;;;;5.23;1.47;;;38.20;50.50;;;;;;5077434;28;20441;-83
2023/01/09 04:13:51;;;;;;;5.97;1.50;;;37.90;49.60;;;;;;5081361;28;20479;-85
2023/01/09 04:16:18;;;;;;;5.77;1.70;;;37.60;50.20;;;;;;5076673;28;20365;-82
2023/01/09 04:18:45;;;;;;;4.80;1.67;;;37.80;50.30;;;;;;5078000;28;20446;-83
2023/01/09 04:21:12;;;;;;;5.38;1.60;;;37.80;50.70;;;;;;5093194;28;20380;-83
2023/01/09 04:23:39;;;;;;;6.57;1.80;;;37.60;50.20;;;;;;5080015;28;20821;-85
2023/01/09 04:26:06;;;;;;;6.53;1.60;;;37.40;51.30;;;;;;5078382;28;20365;-85
2023/01/09 04:28:33;;;;;;;5.65;1.80;;;37.30;51.40;;;;;;5080099;28;20404;-85
2023/01/09 04:31:01;;;;;;;7.75;1.70;;;36.60;50.90;;;;;;5072308;28;20398;-84
2023/01/09 04:33:31;;;;;;;4.75;1.42;;;37.00;51.90;;;;;;5070969;28;20398;-85
2023/01/09 04:35:58;;;;;;;5.65;1.50;;;36.90;52.10;;;;;;5070809;28;20424;-87
2023/01/09 04:38:26;;;;;;;3.50;1.63;;;37.10;52.10;;;;;;5071120;28;20405;-83
2023/01/09 04:40:53;;;;;;;5.25;1.60;;;37.30;51.60;;;;;;5070785;28;20966;-87
2023/01/09 04:43:20;;;;;;;4.20;1.67;;;37.00;51.60;;;;;;5070669;28;20374;-87
2023/01/09 04:45:47;;;;;;;4.45;1.67;;;37.20;51.90;;;;;;5071204;28;20387;-86
2023/01/09 04:48:14;;;;;;;7.75;1.73;;;37.10;51.40;;;;;;5071168;28;20393;-84
2023/01/09 04:50:41;;;;;;;4.90;1.47;;;37.30;52.30;;;;;;5069630;28;20378;-86
2023/01/09 04:53:08;;;;;;;4.82;1.58;;;37.50;51.30;;;;;;5071345;28;20405;-84
2023/01/09 04:55:35;;;;;;;4.07;1.63;;;37.30;52.20;;;;;;5090504;28;20372;-86
2023/01/09 04:58:02;;;;;;;5.18;1.67;;;36.90;52.20;;;;;;5089953;28;20364;-88
2023/01/09 05:00:29;;;;;;;5.07;1.40;;;36.60;53.10;;;;;;5089204;28;20422;-87
2023/01/09 05:02:56;;;;;;;4.82;1.50;;;36.40;51.20;;;;;;5089789;28;20913;-84
2023/01/09 05:05:23;;;;;;;6.10;1.63;;;36.10;51.50;;;;;;5081693;28;20440;-87
2023/01/09 05:07:50;;;;;;;5.85;1.52;;;36.00;51.60;;;;;;5083300;28;20490;-84
2023/01/09 05:10:17;;;;;;;6.57;1.50;;;36.00;51.70;;;;;;5090367;28;20372;-82
2023/01/09 05:12:44;;;;;;;3.78;1.30;;;35.80;51.70;;;;;;5088435;28;20404;-82
2023/01/09 05:15:11;;;;;;;4.45;1.40;;;35.70;52.10;;;;;;5069701;28;20380;-82
2023/01/09 05:17:39;;;;;;;4.07;1.40;;;35.40;51.40;;;;;;5090128;28;20400;-83
2023/01/09 05:20:06;;;;;;;4.90;1.40;;;35.40;52.90;;;;;;5081165;28;21140;-87
2023/01/09 05:22:33;;;;;;;2.88;1.33;;;35.60;51.90;;;;;;5078589;28;20386;-85
2023/01/09 05:25:00;;;;;;;3.17;1.30;;;35.70;51.60;;;;;;5070070;28;20436;-86
2023/01/09 05:27:27;;;;;;;4.22;1.45;;;35.60;51.60;;;;;;5069897;28;20405;-85
2023/01/09 05:29:54;;;;;;;4.40;1.38;;;35.60;51.90;;;;;;5070464;28;20473;-87
2023/01/09 05:32:21;;;;;;;4.10;1.33;;;35.50;52.50;;;;;;5068965;28;20456;-90
2023/01/09 05:34:48;;;;;;;3.70;1.40;;;35.30;51.60;;;;;;5071447;28;20377;-88
2023/01/09 05:37:15;;;;;;;4.55;1.40;;;35.20;52.50;;;;;;5087891;28;20381;-91
2023/01/09 05:39:41;;;;;;;4.80;1.52;;;35.10;52.80;;;;;;5079812;28;20393;-83
2023/01/09 05:42:08;;;;;;;4.68;1.50;;;35.20;52.90;;;;;;5071590;28;20387;-83
2023/01/09 05:44:35;;;;;;;3.97;1.40;;;35.30;52.30;;;;;;5070273;28;20861;-80
2023/01/09 05:47:02;;;;;;;3.30;1.50;;;35.40;53.00;;;;;;5074464;28;20392;-84
2023/01/09 05:49:29;;;;;;;4.20;1.50;;;35.70;52.00;;;;;;5078291;28;20378;-83
2023/01/09 05:51:56;;;;;;;3.90;1.50;;;35.70;52.40;;;;;;5074174;28;20423;-85
2023/01/09 05:54:23;;;;;;;4.60;1.60;;;35.20;53.00;;;;;;5070097;28;20467;-82
2023/01/09 05:56:50;;;;;;;4.25;1.52;;;35.20;53.30;;;;;;5074232;28;20379;-82
2023/01/09 05:59:17;;;;;;;3.50;1.52;;;34.90;54.00;;;;;;5078224;28;20485;-84
2023/01/09 06:01:44;;;;;;;5.55;1.50;;;34.70;54.60;;;;;;5072338;28;20378;-84
2023/01/09 06:04:11;;;;;;;3.78;1.38;;;34.90;54.50;;;;;;5078040;28;20413;-88
2023/01/09 06:06:39;;;;;;;3.97;1.30;;;35.20;54.20;;;;;;5070898;28;20476;-82
2023/01/09 06:09:07;;;;;;;5.03;1.40;;;35.00;53.80;;;;;;5078771;28;20382;-85
2023/01/09 06:11:34;;;;;;;3.78;1.40;;;35.30;54.30;;;;;;5080712;28;20400;-84
2023/01/09 06:14:02;;;;;;;2.60;1.10;;;35.60;53.80;;;;;;5074176;28;20753;-78
2023/01/09 06:16:29;;;;;;;3.38;1.20;;;35.60;53.10;;;;;;5076588;28;20733;-84
2023/01/09 06:18:56;;;;;;;4.40;1.20;;;35.10;53.60;;;;;;5075065;28;20400;-80
2023/01/09 06:21:23;;;;;;;5.65;1.30;;;35.10;53.90;;;;;;5087713;28;20381;-81
2023/01/09 06:23:50;;;;;;;3.53;1.60;;;35.10;53.60;;;;;;5073655;28;20413;-86
2023/01/09 06:26:16;;;;;;;5.50;3.25;;;35.00;54.30;;;;;;5074999;28;20873;-81
2023/01/09 06:28:44;;;;;;;33.45;25.95;;;34.80;54.00;;;;;;5076927;28;20488;-80
2023/01/09 06:31:10;;;;;;;58.53;50.28;;;34.70;53.90;;;;;;5072639;28;20413;-83
2023/01/09 06:33:37;;;;;;;20.73;14.52;;;34.50;54.50;;;;;;5074132;28;20409;-87
2023/01/09 06:36:05;;;;;;;4.03;1.92;;;34.70;54.60;;;;;;5061313;28;20392;-81
2023/01/09 06:38:32;;;;;;;4.30;1.50;;;34.70;54.60;;;;;;5074534;28;20460;-92
2023/01/09 06:40:59;;;;;;;4.40;1.50;;;34.50;54.10;;;;;;5073744;28;20453;-86
2023/01/09 06:43:26;;;;;;;4.10;1.60;;;34.30;54.90;;;;;;5074193;28;20378;-90
2023/01/09 06:45:52;;;;;;;4.38;1.17;;;34.30;55.30;;;;;;5073445;28;20787;-90
2023/01/09 06:48:19;;;;;;;3.95;1.40;;;34.30;56.00;;;;;;5075364;28;20464;-84
2023/01/09 06:50:47;;;;;;;5.32;1.30;;;34.40;55.10;;;;;;5073701;28;20850;-83
2023/01/09 06:53:14;;;;;;;2.97;1.10;;;34.30;55.30;;;;;;5074060;28;20410;-85
2023/01/09 06:55:41;;;;;;;3.75;1.30;;;34.10;55.30;;;;;;5076942;28;20837;-84
2023/01/09 06:58:08;;;;;;;3.17;1.10;;;34.30;54.80;;;;;;5086458;28;20384;-85
2023/01/09 07:00:35;;;;;;;2.63;1.10;;;34.30;55.00;;;;;;5081284;28;20733;-82
2023/01/09 07:03:03;;;;;;;3.38;1.20;;;34.20;54.80;;;;;;5084011;28;20386;-87
2023/01/09 07:05:33;;;;;;;3.17;1.17;;;34.00;54.80;;;;;;5089936;28;20426;-86
2023/01/09 07:08:00;;;;;;;3.53;1.30;;;33.80;55.40;;;;;;5084067;28;20399;-86
2023/01/09 07:10:27;;;;;;;3.22;1.15;;;33.50;55.90;;;;;;5082576;28;20871;-87
2023/01/09 07:12:54;;;;;;;3.25;1.20;;;33.20;56.40;;;;;;5081477;28;20868;-83
2023/01/09 07:15:21;;;;;;;2.25;1.00;;;33.40;56.10;;;;;;5093379;28;20411;-90
2023/01/09 07:17:52;;;;;;;3.50;1.23;;;33.50;55.80;;;;;;5087231;28;20854;-93
2023/01/09 07:20:19;;;;;;;3.53;1.50;;;33.30;56.10;;;;;;5083763;28;20384;-80
2023/01/09 07:22:46;;;;;;;3.15;1.10;;;33.30;56.80;;;;;;5091492;28;20384;-86
2023/01/09 07:25:13;;;;;;;3.50;1.30;;;32.80;56.50;;;;;;5080364;28;20856;-82
2023/01/09 07:27:41;;;;;;;2.30;1.10;;;32.50;57.20;;;;;;5085255;28;20389;-84
2023/01/09 07:30:08;;;;;;;2.47;1.10;;;32.30;57.70;;;;;;5083937;28;20383;-83
2023/01/09 07:32:37;;;;;;;3.40;1.20;;;32.40;57.60;;;;;;5077606;28;20404;-82
2023/01/09 07:35:04;;;;;;;2.45;1.17;;;32.40;57.00;;;;;;5091575;28;20376;-81
2023/01/09 07:37:31;;;;;;;3.63;1.20;;;32.20;57.40;;;;;;5083619;28;20395;-76
2023/01/09 07:39:58;;;;;;;4.68;1.30;;;32.30;57.30;;;;;;5092279;28;20364;-83
2023/01/09 07:42:25;;;;;;;3.20;1.38;;;32.10;57.40;;;;;;5090694;28;20391;-80
2023/01/09 07:44:52;;;;;;;3.50;1.20;;;31.80;57.80;;;;;;5079212;28;20386;-80
2023/01/09 07:47:19;;;;;;;4.68;1.20;;;31.70;58.20;;;;;;5079038;28;20411;-84
2023/01/09 07:49:46;;;;;;;4.22;1.10;;;31.80;58.10;;;;;;5090751;28;20372;-83
2023/01/09 07:52:13;;;;;;;1.85;1.10;;;31.80;58.00;;;;;;5062890;28;20944;-80
2023/01/09 07:54:40;;;;;;;2.67;1.20;;;31.50;58.70;;;;;;5071528;28;20421;-81
2023/01/09 07:57:07;;;;;;;3.53;1.10;;;31.40;57.80;;;;;;5071389;28;20383;-81
2023/01/09 07:59:34;;;;;;;4.03;1.20;;;31.10;58.30;;;;;;5071460;28;20406;-78
2023/01/09 08:02:04;;;;;;;3.60;1.30;;;30.90;58.90;;;;;;5071686;28;20381;-81
2023/01/09 08:04:31;;;;;;;2.85;1.10;;;30.60;59.00;;;;;;5071341;28;20390;-80
2023/01/09 08:06:58;;;;;;;3.17;1.13;;;30.40;59.40;;;;;;5071916;28;20395;-89
2023/01/09 08:09:25;;;;;;;4.07;1.20;;;30.30;60.20;;;;;;5076348;28;20408;-82
2023/01/09 08:11:52;;;;;;;2.20;1.00;;;30.40;60.30;;;;;;5090174;28;20384;-78
2023/01/09 08:14:19;;;;;;;4.53;1.17;;;30.40;59.70;;;;;;5091532;28;20414;-78
2023/01/09 08:16:46;;;;;;;3.38;1.10;;;30.20;59.80;;;;;;5090909;28;20400;-78
2023/01/09 08:19:13;;;;;;;3.78;1.10;;;29.50;61.20;;;;;;5080946;28;20477;-86
2023/01/09 08:21:40;;;;;;;3.65;1.20;;;29.00;62.00;;;;;;5071435;28;20463;-79
2023/01/09 08:24:08;;;;;;;5.07;1.20;;;28.50;63.20;;;;;;5081531;28;20432;-84
2023/01/09 08:26:35;;;;;;;3.80;1.13;;;28.10;63.70;;;;;;5082588;28;20921;-78
2023/01/09 08:29:02;;;;;;;2.78;1.00;;;27.70;63.50;;;;;;5086863;28;20494;-76
2023/01/09 08:31:29;;;;;;;5.70;1.20;;;27.40;65.00;;;;;;5083612;28;20382;-78
2023/01/09 08:33:56;;;;;;;4.45;1.00;;;27.10;66.50;;;;;;5084998;28;20392;-82
2023/01/09 08:36:23;;;;;;;3.63;1.20;;;26.90;67.20;;;;;;5085678;28;20883;-83
2023/01/09 08:38:50;;;;;;;4.47;1.13;;;26.80;67.80;;;;;;5090564;28;20389;-80
2023/01/09 08:47:05;;;;;;;3.42;1.10;;;26.30;68.80;;;;;;5083878;28;20388;-81
2023/01/09 08:49:38;;;;;;;2.00;0.98;;;26.10;68.90;;;;;;5088464;28;20434;-81
2023/01/09 08:52:06;;;;;;;2.90;1.00;;;26.00;69.80;;;;;;5082933;28;20489;-76
2023/01/09 08:54:37;;;;;;;2.35;1.13;;;25.80;70.70;;;;;;5081298;28;20388;-83
2023/01/09 08:57:05;;;;;;;3.40;1.20;;;25.60;70.70;;;;;;5080498;28;20382;-81
2023/01/09 08:59:32;;;;;;;3.35;1.10;;;25.40;71.10;;;;;;5076895;28;20394;-78
2023/01/09 09:01:59;;;;;;;3.67;1.15;;;25.30;71.30;;;;;;5073052;28;20415;-79
2023/01/09 09:04:26;;;;;;;2.80;1.10;;;25.10;71.90;;;;;;5075156;28;20449;-79
2023/01/09 09:06:53;;;;;;;4.40;1.17;;;24.90;73.20;;;;;;5070642;28;20382;-85
2023/01/09 09:09:20;;;;;;;3.58;1.20;;;24.70;73.60;;;;;;5076310;28;20830;-79
2023/01/09 09:11:47;;;;;;;3.20;1.13;;;24.60;74.50;;;;;;5084876;28;20431;-83
2023/01/09 09:17:09;;;;;;;3.13;1.10;;;24.20;75.50;;;;;;5060899;28;20398;-82
2023/01/09 09:19:38;;;;;;;3.28;1.00;;;24.10;75.30;;;;;;5051637;28;21011;-86
2023/01/09 09:22:05;;;;;;;3.88;1.00;;;23.90;75.30;;;;;;5045176;28;20392;-80
2023/01/09 09:24:32;;;;;;;2.93;1.13;;;23.70;75.00;;;;;;5063508;28;20379;-85
2023/01/09 09:26:59;;;;;;;2.78;1.00;;;23.60;75.00;;;;;;5067309;28;20435;-87
2023/01/09 09:29:26;;;;;;;3.33;1.10;;;23.50;75.60;;;;;;5067932;28;20825;-78
2023/01/09 09:31:53;;;;;;;4.07;1.10;;;23.40;76.00;;;;;;5070560;28;20421;-85
2023/01/09 09:34:22;;;;;;;4.03;1.30;;;23.30;76.60;;;;;;5054372;28;20447;-87
2023/01/09 09:36:49;;;;;;;3.15;1.10;;;23.20;77.50;;;;;;5053534;28;20392;-85
2023/01/09 09:39:16;;;;;;;4.10;1.30;;;23.10;77.90;;;;;;5050211;28;20725;-80
2023/01/09 09:45:38;;;;;;;4.07;1.30;;;23.00;79.50;;;;;;5042209;28;20372;-83
2023/01/09 09:48:22;;;;;;;2.97;1.10;;;22.90;79.90;;;;;;5057667;28;20418;-82
2023/01/09 09:50:49;;;;;;;3.50;1.17;;;22.80;80.30;;;;;;5053079;28;20902;-80
2023/01/09 09:53:36;;;;;;;3.97;1.40;;;22.80;81.30;;;;;;5060101;28;20425;-86
2023/01/09 09:56:04;;;;;;;3.85;1.02;;;22.70;82.40;;;;;;5070116;28;20389;-81
2023/01/09 09:58:44;;;;;;;3.28;1.10;;;22.70;82.60;;;;;;5074820;28;20372;-82
2023/01/09 10:01:17;;;;;;;3.97;1.20;;;22.60;83.30;;;;;;5073950;28;20431;-85
2023/01/09 10:03:51;;;;;;;3.60;1.10;;;22.50;84.20;;;;;;5069932;28;20373;-84
2023/01/09 10:06:37;;;;;;;3.83;1.20;;;22.40;84.80;;;;;;5084782;28;20373;-89
2023/01/09 10:09:28;;;;;;;4.05;1.25;;;22.30;86.00;;;;;;5069885;28;20390;-83
2023/01/09 10:12:26;;;;;;;3.38;1.20;;;22.30;87.40;;;;;;5068885;28;20508;-84
2023/01/09 10:15:17;;;;;;;5.70;1.45;;;22.10;88.10;;;;;;5087457;28;20383;-85
2023/01/09 10:18:03;;;;;;;2.67;1.00;;;22.10;89.50;;;;;;5076974;28;21024;-86
2023/01/09 10:20:55;;;;;;;3.83;1.15;;;22.00;90.10;;;;;;5071612;28;20433;-83
2023/01/09 10:23:50;;;;;;;3.90;1.07;;;21.90;90.60;;;;;;5106908;28;20412;-81
2023/01/09 10:26:44;;;;;;;3.95;1.20;;;21.80;91.10;;;;;;5065056;28;20372;-82
2023/01/09 10:29:14;;;;;;;4.13;1.27;;;21.70;91.70;;;;;;5071923;28;20372;-84
2023/01/09 10:32:02;;;;;;;3.67;1.10;;;21.60;92.70;;;;;;5076855;28;20749;-80
2023/01/09 10:35:10;;;;;;;3.28;1.30;;;21.60;93.70;;;;;;5061063;28;20731;-82
2023/01/09 10:37:43;;;;;;;3.90;1.10;;;21.40;94.90;;;;;;5046025;28;20383;-81
2023/01/09 10:40:42;;;;;;;3.20;1.20;;;21.30;96.40;;;;;;5045678;28;20383;-77
2023/01/09 10:43:21;;;;;;;4.17;1.30;;;21.20;98.80;;;;;;5005566;28;20390;-78
2023/01/09 10:45:55;;;;;;;5.60;2.60;;;21.20;99.90;;;;;;4997639;28;20417;-86
2023/01/09 10:48:37;;;;;;;5.57;2.13;;;21.10;99.90;;;;;;4993595;28;20433;-79
2023/01/09 10:51:50;;;;;;;4.55;1.60;;;21.10;99.90;;;;;;5006656;28;20422;-87
2023/01/09 10:54:22;;;;;;;3.75;1.50;;;21.00;99.90;;;;;;4939793;28;20408;-77
2023/01/09 10:57:00;;;;;;;3.03;1.50;;;20.90;99.90;;;;;;4961078;28;20416;-83
2023/01/09 10:59:29;;;;;;;3.13;1.30;;;20.80;99.90;;;;;;4952360;28;20486;-77
2023/01/09 11:01:56;;;;;;;4.32;1.70;;;20.80;99.90;;;;;;4951799;28;20556;-88
2023/01/09 11:04:38;;;;;;;4.97;1.65;;;20.70;99.90;;;;;;4951834;28;20396;-78
2023/01/09 11:07:18;;;;;;;4.85;1.67;;;20.70;99.90;;;;;;4942469;28;20398;-79
2023/01/09 11:09:56;;;;;;;5.47;1.80;;;20.60;99.90;;;;;;4952193;29;20501;-86
2023/01/09 11:12:28;;;;;;;5.85;1.90;;;20.60;99.90;;;;;;4951504;29;20408;-80
2023/01/09 11:14:55;;;;;;;4.95;1.50;;;20.60;99.90;;;;;;4966984;28;20401;-83
2023/01/09 11:17:26;;;;;;;4.57;1.88;;;20.50;99.90;;;;;;4971135;28;20390;-85
2023/01/09 11:20:05;;;;;;;2.95;1.40;;;20.50;99.90;;;;;;4982612;28;20413;-77
2023/01/09 11:22:49;;;;;;;3.17;1.40;;;20.50;99.90;;;;;;4985143;28;20801;-77
2023/01/09 11:25:18;;;;;;;3.65;1.35;;;20.40;99.90;;;;;;4986545;28;21867;-83
2023/01/09 11:28:05;;;;;;;6.10;1.33;;;20.30;99.90;;;;;;4990293;28;20431;-77
2023/01/09 11:30:35;;;;;;;6.70;1.58;;;20.20;99.90;;;;;;5002876;28;20725;-82
2023/01/09 11:33:15;;;;;;;7.38;1.50;;;20.20;99.90;;;;;;5075317;28;20412;-77
2023/01/09 11:36:01;;;;;;;3.80;1.50;;;20.20;99.90;;;;;;5069537;28;20373;-77
2023/01/09 11:38:28;;;;;;;5.30;1.40;;;20.10;99.90;;;;;;5091888;28;20398;-78
2023/01/09 11:41:01;;;;;;;4.50;1.42;;;20.10;99.90;;;;;;5073993;28;20440;-78
2023/01/09 11:43:35;;;;;;;3.92;1.30;;;20.10;99.90;;;;;;5091040;28;20760;-79
2023/01/09 11:46:07;;;;;;;5.85;1.60;;;20.10;99.90;;;;;;5084221;28;20382;-78
2023/01/09 11:48:34;;;;;;;4.43;1.30;;;20.10;99.90;;;;;;5079110;28;20871;-78
2023/01/09 11:51:22;;;;;;;5.28;1.40;;;20.00;99.90;;;;;;5090384;28;20388;-79
2023/01/09 11:54:00;;;;;;;4.22;1.50;;;20.00;99.90;;;;;;5071366;28;20420;-79
2023/01/09 11:56:28;;;;;;;4.25;1.40;;;19.90;99.90;;;;;;5072001;28;20375;-77
2023/01/09 11:58:55;;;;;;;3.22;1.42;;;19.90;99.90;;;;;;5071610;28;20394;-79
2023/01/09 12:01:59;;;;;;;4.10;1.40;;;19.90;99.90;;;;;;5071630;28;20806;-85
2023/01/09 12:04:43;;;;;;;3.45;1.50;;;19.90;99.90;;;;;;5072004;28;20413;-79
2023/01/09 12:07:21;;;;;;;4.80;1.65;;;19.90;99.90;;;;;;5076467;28;20574;-79
2023/01/09 12:10:06;;;;;;;9.10;1.80;;;19.80;99.90;;;;;;5073533;28;20850;-81
2023/01/09 12:13:07;;;;;;;8.60;1.77;;;19.80;99.90;;;;;;5071708;28;20800;-80
2023/01/09 12:15:52;;;;;;;23.77;2.80;;;19.80;99.90;;;;;;5071485;28;20452;-77
2023/01/09 12:18:31;;;;;;;19.63;2.70;;;19.80;99.90;;;;;;5058675;28;20366;-78
2023/01/09 12:21:07;;;;;;;22.95;2.50;;;19.70;99.90;;;;;;5075222;28;20388;-81
2023/01/09 12:23:59;;;;;;;22.35;2.75;;;19.60;99.90;;;;;;5063155;28;20378;-77
2023/01/09 12:26:26;;;;;;;13.30;2.30;;;19.60;99.90;;;;;;5070030;28;20386;-79
2023/01/09 12:29:01;;;;;;;14.05;2.17;;;19.50;99.90;;;;;;5075075;28;20382;-78
2023/01/09 12:31:42;;;;;;;8.15;2.00;;;19.50;99.90;;;;;;5071765;28;20460;-79
2023/01/09 12:34:28;;;;;;;9.10;2.05;;;19.50;99.90;;;;;;5083713;28;20497;-79
2023/01/09 12:37:16;;;;;;;8.93;1.88;;;19.50;99.90;;;;;;5073201;28;20399;-78
2023/01/09 12:39:58;;;;;;;9.15;1.88;;;19.40;99.90;;;;;;5001372;28;20383;-82
2023/01/09 12:42:40;;;;;;;9.23;1.88;;;19.40;99.90;;;;;;5008709;28;20864;-78
2023/01/09 12:45:25;;;;;;;8.65;2.00;;;19.40;99.90;;;;;;5011384;28;20375;-78
2023/01/09 12:47:55;;;;;;;5.87;1.80;;;19.40;99.90;;;;;;5010062;28;20395;-77
2023/01/09 12:51:03;;;;;;;5.65;1.60;;;19.20;99.90;;;;;;5010623;28;20391;-77
2023/01/09 12:53:44;;;;;;;7.95;1.70;;;19.20;99.90;;;;;;5012657;28;20409;-78
2023/01/09 12:56:16;;;;;;;8.05;2.00;;;19.10;99.90;;;;;;5016276;28;20398;-77
2023/01/09 12:59:17;;;;;;;7.72;1.60;;;19.10;99.90;;;;;;5015413;28;20378;-77
2023/01/09 13:01:50;;;;;;;8.70;1.75;;;19.00;99.90;;;;;;5027106;28;20390;-79
2023/01/09 13:04:27;;;;;;;10.55;1.80;;;19.00;99.90;;;;;;5037514;28;20388;-78
2023/01/09 13:07:05;;;;;;;10.25;1.70;;;19.00;99.90;;;;;;5035154;28;20456;-77
2023/01/09 13:09:48;;;;;;;10.82;1.95;;;19.00;99.90;;;;;;5031774;28;20396;-77
2023/01/09 13:12:20;;;;;;;15.73;2.00;;;18.90;99.90;;;;;;5021333;28;20433;-77
2023/01/09 13:15:25;;;;;;;17.70;2.33;;;18.90;99.90;;;;;;5029952;28;20457;-82
2023/01/09 13:18:13;;;;;;;25.48;2.90;;;18.90;99.90;;;;;;5015734;28;20798;-80
2023/01/09 13:21:07;;;;;;;28.52;3.10;;;18.90;99.90;;;;;;5014755;28;20398;-81
2023/01/09 13:23:56;;;;;;;23.50;2.97;;;18.90;99.90;;;;;;4952967;28;20584;-80
2023/01/09 13:26:32;;;;;;;28.58;2.92;;;18.80;99.90;;;;;;4946158;28;20379;-83